SAEZ/EZE METAR and TAF weather

Enter ICAO airport designator
Station Type Date Time Source
SAEZ METAR 2019/10/21 05:00 UTC NOAA

SAEZ 210500Z 21004KT 8000 -RA SCT041 OVC060 13/13 Q1018 NOSIG


Station Type Date Time Source
SAEZ Decoded METAR 2019/10/21 05:00 UTC NOAA

Ezeiza Aerodrome, Argentina (SAEZ) 34-49S 058-32W 20M
Oct 21, 2019 - 01:00 AM EDT / 2019.10.21 0500 UTC
Wind: from the SSW (210 degrees) at 5 MPH (4 KT):0
Visibility: 4 mile(s):0
Sky conditions: overcast
Weather: light rain
Temperature: 55 F (13 C)
Dew Point: 55 F (13 C)
Relative Humidity: 100%
Pressure (altimeter): 30.06 in. Hg (1018 hPa)
ob: SAEZ 210500Z 21004KT 8000 -RA SCT041 OVC060 13/13 Q1018 NOSIG
cycle: 5

Station Type Date Time Source
SAEZ TAF 2019/10/21 06:12 UTC NOAA

TAF TAF SAEZ 210500Z 2106/2206 16005KT 8000 RA SCT040 OVC060 TX19/2118Z TN11/2110Z BECNG 2108/2110 VRB03KT 9999 SCT040 BKN050
BECMG 2110/2112 7000 DZ OVC040
BECMG 2112/2114 9999 BKN030 FEW045TCU
BECMG 2121/2123 34005KT CAVOK

Example: see airport list